sensor_id;sensor_type;location;lat;lon;timestamp;temperature;humidity
9537;DHT22;4807;48.024;11.726;2023-03-01T00:00:21;0.40;99.90
9537;DHT22;4807;48.024;11.726;2023-03-01T00:03:30;0.40;99.90
9537;DHT22;4807;48.024;11.726;2023-03-01T00:06:40;0.30;99.90
9537;DHT22;4807;48.024;11.726;2023-03-01T00:09:52;0.30;99.90
9537;DHT22;4807;48.024;11.726;2023-03-01T00:13:00;0.40;99.90
9537;DHT22;4807;48.024;11.726;2023-03-01T00:16:10;0.40;99.90
9537;DHT22;4807;48.024;11.726;2023-03-01T00:19:21;0.40;99.90
9537;DHT22;4807;48.024;11.726;2023-03-01T00:22:30;0.30;99.90
9537;DHT22;4807;48.024;11.726;2023-03-01T00:25:42;0.30;99.90
9537;DHT22;4807;48.024;11.726;2023-03-01T00:28:54;0.30;99.90
9537;DHT22;4807;48.024;11.726;2023-03-01T00:32:03;0.30;99.90
9537;DHT22;4807;48.024;11.726;2023-03-01T00:35:11;0.30;99.90
9537;DHT22;4807;48.024;11.726;2023-03-01T00:38:21;0.30;99.90
9537;DHT22;4807;48.024;11.726;2023-03-01T00:41:31;0.30;99.90
9537;DHT22;4807;48.024;11.726;2023-03-01T00:44:43;0.30;99.90
9537;DHT22;4807;48.024;11.726;2023-03-01T00:47:52;0.30;99.90
9537;DHT22;4807;48.024;11.726;2023-03-01T00:51:05;0.30;99.90
9537;DHT22;4807;48.024;11.726;2023-03-01T00:54:16;0.30;99.90
9537;DHT22;4807;48.024;11.726;2023-03-01T00:57:27;0.30;99.90
9537;DHT22;4807;48.024;11.726;2023-03-01T01:00:35;0.30;99.90
9537;DHT22;4807;48.024;11.726;2023-03-01T01:03:45;0.30;99.90
9537;DHT22;4807;48.024;11.726;2023-03-01T01:06:54;0.30;99.90
9537;DHT22;4807;48.024;11.726;2023-03-01T01:10:06;0.20;99.90
9537;DHT22;4807;48.024;11.726;2023-03-01T01:13:15;0.20;99.90
9537;DHT22;4807;48.024;11.726;2023-03-01T01:16:26;0.30;99.90
9537;DHT22;4807;48.024;11.726;2023-03-01T01:19:35;0.20;99.90
9537;DHT22;4807;48.024;11.726;2023-03-01T01:22:44;0.20;99.90
9537;DHT22;4807;48.024;11.726;2023-03-01T01:25:53;0.10;99.90
9537;DHT22;4807;48.024;11.726;2023-03-01T01:29:03;0.20;99.90
9537;DHT22;4807;48.024;11.726;2023-03-01T01:32:12;0.20;99.90
9537;DHT22;4807;48.024;11.726;2023-03-01T01:35:21;0.20;99.90
9537;DHT22;4807;48.024;11.726;2023-03-01T01:38:29;0.30;99.90
9537;DHT22;4807;48.024;11.726;2023-03-01T01:41:40;0.30;99.90
9537;DHT22;4807;48.024;11.726;2023-03-01T01:48:42;0.20;99.90
9537;DHT22;4807;48.024;11.726;2023-03-01T01:51:59;0.20;99.90
9537;DHT22;4807;48.024;11.726;2023-03-01T01:55:16;0.20;99.90
9537;DHT22;4807;48.024;11.726;2023-03-01T01:58:30;0.20;99.90
9537;DHT22;4807;48.024;11.726;2023-03-01T02:01:38;0.20;99.90
9537;DHT22;4807;48.024;11.726;2023-03-01T02:04:47;0.20;99.90
9537;DHT22;4807;48.024;11.726;2023-03-01T02:08:01;0.20;99.90
9537;DHT22;4807;48.024;11.726;2023-03-01T02:11:10;0.10;99.90
9537;DHT22;4807;48.024;11.726;2023-03-01T02:14:22;0.10;99.90
9537;DHT22;4807;48.024;11.726;2023-03-01T02:17:30;0.10;99.90
9537;DHT22;4807;48.024;11.726;2023-03-01T02:20:51;0.10;99.90
9537;DHT22;4807;48.024;11.726;2023-03-01T02:24:16;0.20;99.90
9537;DHT22;4807;48.024;11.726;2023-03-01T02:27:37;0.10;99.90
9537;DHT22;4807;48.024;11.726;2023-03-01T02:30:53;0.00;99.90
9537;DHT22;4807;48.024;11.726;2023-03-01T02:34:22;0.00;99.90
9537;DHT22;4807;48.024;11.726;2023-03-01T02:37:35;0.00;99.90
9537;DHT22;4807;48.024;11.726;2023-03-01T02:40:44;0.00;99.90
9537;DHT22;4807;48.024;11.726;2023-03-01T02:43:53;0.00;99.90
9537;DHT22;4807;48.024;11.726;2023-03-01T02:47:03;0.00;99.90
9537;DHT22;4807;48.024;11.726;2023-03-01T02:50:22;0.00;99.90
9537;DHT22;4807;48.024;11.726;2023-03-01T02:53:55;0.00;99.90
9537;DHT22;4807;48.024;11.726;2023-03-01T02:57:14;0.00;99.90
9537;DHT22;4807;48.024;11.726;2023-03-01T03:00:26;0.10;99.90
9537;DHT22;4807;48.024;11.726;2023-03-01T03:03:42;-0.10;99.90
9537;DHT22;4807;48.024;11.726;2023-03-01T03:06:51;0.00;99.90
9537;DHT22;4807;48.024;11.726;2023-03-01T03:10:00;-0.10;99.90
9537;DHT22;4807;48.024;11.726;2023-03-01T03:13:10;0.00;99.90
9537;DHT22;4807;48.024;11.726;2023-03-01T03:16:21;-0.10;99.90
9537;DHT22;4807;48.024;11.726;2023-03-01T03:19:32;-0.10;99.90
9537;DHT22;4807;48.024;11.726;2023-03-01T03:22:40;-0.10;99.90
9537;DHT22;4807;48.024;11.726;2023-03-01T03:25:48;-0.10;99.90
9537;DHT22;4807;48.024;11.726;2023-03-01T03:28:58;-0.10;99.90
9537;DHT22;4807;48.024;11.726;2023-03-01T03:32:06;-0.10;99.90
9537;DHT22;4807;48.024;11.726;2023-03-01T03:35:15;-0.10;99.90
9537;DHT22;4807;48.024;11.726;2023-03-01T03:38:24;-0.10;99.90
9537;DHT22;4807;48.024;11.726;2023-03-01T03:41:34;-0.10;99.90
9537;DHT22;4807;48.024;11.726;2023-03-01T03:44:43;-0.20;99.90
9537;DHT22;4807;48.024;11.726;2023-03-01T03:47:51;-0.20;99.90
9537;DHT22;4807;48.024;11.726;2023-03-01T03:51:01;-0.20;99.90
9537;DHT22;4807;48.024;11.726;2023-03-01T03:54:12;-0.20;99.90
9537;DHT22;4807;48.024;11.726;2023-03-01T03:57:20;-0.20;99.90
9537;DHT22;4807;48.024;11.726;2023-03-01T04:00:29;-0.30;99.90
9537;DHT22;4807;48.024;11.726;2023-03-01T04:03:37;-0.30;99.90
9537;DHT22;4807;48.024;11.726;2023-03-01T04:06:46;-0.30;99.90
9537;DHT22;4807;48.024;11.726;2023-03-01T04:09:55;-0.20;99.90
9537;DHT22;4807;48.024;11.726;2023-03-01T04:13:03;-0.30;99.90
9537;DHT22;4807;48.024;11.726;2023-03-01T04:16:12;-0.30;99.90
9537;DHT22;4807;48.024;11.726;2023-03-01T04:19:21;-0.20;99.90
9537;DHT22;4807;48.024;11.726;2023-03-01T04:22:30;-0.20;99.90
9537;DHT22;4807;48.024;11.726;2023-03-01T04:25:39;-0.30;99.90
9537;DHT22;4807;48.024;11.726;2023-03-01T04:28:49;-0.30;99.90
9537;DHT22;4807;48.024;11.726;2023-03-01T04:31:57;-0.40;99.90
9537;DHT22;4807;48.024;11.726;2023-03-01T04:35:06;-0.40;99.90
9537;DHT22;4807;48.024;11.726;2023-03-01T04:38:17;-0.50;99.90
9537;DHT22;4807;48.024;11.726;2023-03-01T04:41:26;-0.50;99.90
9537;DHT22;4807;48.024;11.726;2023-03-01T04:44:34;-0.60;99.90
9537;DHT22;4807;48.024;11.726;2023-03-01T04:47:43;-0.50;99.90
9537;DHT22;4807;48.024;11.726;2023-03-01T04:50:53;-0.60;99.90
9537;DHT22;4807;48.024;11.726;2023-03-01T04:54:03;-0.70;99.90
9537;DHT22;4807;48.024;11.726;2023-03-01T04:57:15;-0.60;99.90
9537;DHT22;4807;48.024;11.726;2023-03-01T05:00:24;-0.60;99.90
9537;DHT22;4807;48.024;11.726;2023-03-01T05:03:32;-0.70;99.90
9537;DHT22;4807;48.024;11.726;2023-03-01T05:06:40;-0.70;99.90
9537;DHT22;4807;48.024;11.726;2023-03-01T05:09:50;-0.70;99.90
9537;DHT22;4807;48.024;11.726;2023-03-01T05:13:01;-0.70;99.90
9537;DHT22;4807;48.024;11.726;2023-03-01T05:16:11;-0.70;99.90
9537;DHT22;4807;48.024;11.726;2023-03-01T05:19:19;-0.70;99.90
9537;DHT22;4807;48.024;11.726;2023-03-01T05:22:29;-0.80;99.90
9537;DHT22;4807;48.024;11.726;2023-03-01T05:25:39;-0.80;99.90
9537;DHT22;4807;48.024;11.726;2023-03-01T05:28:48;-0.90;99.90
9537;DHT22;4807;48.024;11.726;2023-03-01T05:31:58;-0.90;99.90
9537;DHT22;4807;48.024;11.726;2023-03-01T05:35:07;-0.90;99.90
9537;DHT22;4807;48.024;11.726;2023-03-01T05:38:20;-0.90;99.90
9537;DHT22;4807;48.024;11.726;2023-03-01T05:41:30;-0.80;99.90
9537;DHT22;4807;48.024;11.726;2023-03-01T05:44:38;-0.80;99.90
9537;DHT22;4807;48.024;11.726;2023-03-01T05:47:48;-0.80;99.90
9537;DHT22;4807;48.024;11.726;2023-03-01T05:50:59;-0.90;99.90
9537;DHT22;4807;48.024;11.726;2023-03-01T05:54:08;-0.90;99.90
9537;DHT22;4807;48.024;11.726;2023-03-01T05:57:17;-0.90;99.90
9537;DHT22;4807;48.024;11.726;2023-03-01T06:00:26;-0.90;99.90
9537;DHT22;4807;48.024;11.726;2023-03-01T06:03:34;-0.80;99.90
9537;DHT22;4807;48.024;11.726;2023-03-01T06:06:42;-0.80;99.90
9537;DHT22;4807;48.024;11.726;2023-03-01T06:09:51;-0.80;99.90
9537;DHT22;4807;48.024;11.726;2023-03-01T06:13:00;-0.80;99.90
9537;DHT22;4807;48.024;11.726;2023-03-01T06:16:09;-0.80;99.90
9537;DHT22;4807;48.024;11.726;2023-03-01T06:19:17;-0.80;99.90
9537;DHT22;4807;48.024;11.726;2023-03-01T06:22:27;-0.80;99.90
9537;DHT22;4807;48.024;11.726;2023-03-01T06:25:35;-0.80;99.90
9537;DHT22;4807;48.024;11.726;2023-03-01T06:28:45;-0.80;99.90
9537;DHT22;4807;48.024;11.726;2023-03-01T06:31:53;-0.80;99.90
9537;DHT22;4807;48.024;11.726;2023-03-01T06:35:01;-0.70;99.90
9537;DHT22;4807;48.024;11.726;2023-03-01T06:38:10;-0.70;99.90
9537;DHT22;4807;48.024;11.726;2023-03-01T06:41:18;-0.70;99.90
9537;DHT22;4807;48.024;11.726;2023-03-01T06:44:28;-0.70;99.90
9537;DHT22;4807;48.024;11.726;2023-03-01T06:47:36;-0.70;99.90
9537;DHT22;4807;48.024;11.726;2023-03-01T06:50:45;-0.70;99.90
9537;DHT22;4807;48.024;11.726;2023-03-01T06:53:53;-0.60;99.90
9537;DHT22;4807;48.024;11.726;2023-03-01T06:57:01;-0.50;99.90
9537;DHT22;4807;48.024;11.726;2023-03-01T07:00:12;-0.50;99.90
9537;DHT22;4807;48.024;11.726;2023-03-01T07:03:22;-0.50;99.90
9537;DHT22;4807;48.024;11.726;2023-03-01T07:06:30;-0.40;99.90
9537;DHT22;4807;48.024;11.726;2023-03-01T07:09:39;-0.40;99.90
9537;DHT22;4807;48.024;11.726;2023-03-01T07:12:47;-0.30;99.90
9537;DHT22;4807;48.024;11.726;2023-03-01T07:15:57;-0.30;99.90
9537;DHT22;4807;48.024;11.726;2023-03-01T07:19:06;-0.30;99.90
9537;DHT22;4807;48.024;11.726;2023-03-01T07:22:14;-0.30;99.90
9537;DHT22;4807;48.024;11.726;2023-03-01T07:25:22;-0.30;99.90
9537;DHT22;4807;48.024;11.726;2023-03-01T07:28:31;-0.30;99.90
9537;DHT22;4807;48.024;11.726;2023-03-01T07:31:44;-0.30;99.90
9537;DHT22;4807;48.024;11.726;2023-03-01T07:34:53;-0.30;99.90
9537;DHT22;4807;48.024;11.726;2023-03-01T07:38:02;-0.30;99.90
9537;DHT22;4807;48.024;11.726;2023-03-01T07:41:10;-0.20;99.90
9537;DHT22;4807;48.024;11.726;2023-03-01T07:44:18;-0.20;99.90
9537;DHT22;4807;48.024;11.726;2023-03-01T07:47:28;-0.20;99.90
9537;DHT22;4807;48.024;11.726;2023-03-01T07:50:36;-0.20;99.90
9537;DHT22;4807;48.024;11.726;2023-03-01T07:53:46;-0.20;99.90
9537;DHT22;4807;48.024;11.726;2023-03-01T07:56:56;0.00;99.90
9537;DHT22;4807;48.024;11.726;2023-03-01T08:00:05;0.10;99.90
9537;DHT22;4807;48.024;11.726;2023-03-01T08:03:19;0.30;99.90
9537;DHT22;4807;48.024;11.726;2023-03-01T08:06:27;0.20;99.90
9537;DHT22;4807;48.024;11.726;2023-03-01T08:09:36;1.70;99.90
9537;DHT22;4807;48.024;11.726;2023-03-01T08:12:45;0.30;99.90
9537;DHT22;4807;48.024;11.726;2023-03-01T08:15:54;0.40;99.90
9537;DHT22;4807;48.024;11.726;2023-03-01T08:19:11;0.40;99.90
9537;DHT22;4807;48.024;11.726;2023-03-01T08:22:19;0.40;99.90
9537;DHT22;4807;48.024;11.726;2023-03-01T08:25:28;0.50;99.90
9537;DHT22;4807;48.024;11.726;2023-03-01T08:28:36;0.70;99.90
9537;DHT22;4807;48.024;11.726;2023-03-01T08:31:45;0.80;99.90
9537;DHT22;4807;48.024;11.726;2023-03-01T08:34:55;0.90;99.90
9537;DHT22;4807;48.024;11.726;2023-03-01T08:38:04;0.90;99.90
9537;DHT22;4807;48.024;11.726;2023-03-01T08:41:12;0.80;99.90
9537;DHT22;4807;48.024;11.726;2023-03-01T08:44:21;1.00;99.90
9537;DHT22;4807;48.024;11.726;2023-03-01T08:47:29;1.10;99.70
9537;DHT22;4807;48.024;11.726;2023-03-01T08:50:38;1.30;99.20
9537;DHT22;4807;48.024;11.726;2023-03-01T08:53:48;1.20;98.70
9537;DHT22;4807;48.024;11.726;2023-03-01T08:56:56;1.20;99.20
9537;DHT22;4807;48.024;11.726;2023-03-01T09:00:07;1.20;99.00
9537;DHT22;4807;48.024;11.726;2023-03-01T09:03:16;1.20;98.90
9537;DHT22;4807;48.024;11.726;2023-03-01T09:06:25;1.40;99.40
9537;DHT22;4807;48.024;11.726;2023-03-01T09:09:34;1.40;98.50
9537;DHT22;4807;48.024;11.726;2023-03-01T09:12:43;1.30;98.60
9537;DHT22;4807;48.024;11.726;2023-03-01T09:15:51;1.30;98.90
9537;DHT22;4807;48.024;11.726;2023-03-01T09:18:59;1.50;98.60
9537;DHT22;4807;48.024;11.726;2023-03-01T09:22:09;1.50;98.30
9537;DHT22;4807;48.024;11.726;2023-03-01T09:25:17;1.70;98.20
9537;DHT22;4807;48.024;11.726;2023-03-01T09:28:25;1.50;98.30
9537;DHT22;4807;48.024;11.726;2023-03-01T09:31:36;1.80;98.30
9537;DHT22;4807;48.024;11.726;2023-03-01T09:34:44;2.20;97.70
9537;DHT22;4807;48.024;11.726;2023-03-01T09:38:13;2.50;96.60
9537;DHT22;4807;48.024;11.726;2023-03-01T09:41:31;2.50;96.60
9537;DHT22;4807;48.024;11.726;2023-03-01T09:44:54;2.50;96.40
9537;DHT22;4807;48.024;11.726;2023-03-01T09:48:15;2.40;96.90
9537;DHT22;4807;48.024;11.726;2023-03-01T09:51:29;2.10;97.00
9537;DHT22;4807;48.024;11.726;2023-03-01T09:54:40;2.20;97.70
9537;DHT22;4807;48.024;11.726;2023-03-01T09:57:52;2.40;96.90
9537;DHT22;4807;48.024;11.726;2023-03-01T10:01:23;2.70;96.80
9537;DHT22;4807;48.024;11.726;2023-03-01T10:04:44;2.70;96.50
9537;DHT22;4807;48.024;11.726;2023-03-01T10:08:06;2.80;96.10
9537;DHT22;4807;48.024;11.726;2023-03-01T10:11:36;2.80;96.30
9537;DHT22;4807;48.024;11.726;2023-03-01T10:14:53;3.10;95.50
9537;DHT22;4807;48.024;11.726;2023-03-01T10:18:13;2.90;95.50
9537;DHT22;4807;48.024;11.726;2023-03-01T10:21:27;2.90;95.60
9537;DHT22;4807;48.024;11.726;2023-03-01T10:24:38;2.90;95.70
9537;DHT22;4807;48.024;11.726;2023-03-01T10:27:52;2.80;95.50
9537;DHT22;4807;48.024;11.726;2023-03-01T10:31:02;3.30;94.60
9537;DHT22;4807;48.024;11.726;2023-03-01T10:34:20;3.30;95.00
9537;DHT22;4807;48.024;11.726;2023-03-01T10:37:29;3.10;95.10
9537;DHT22;4807;48.024;11.726;2023-03-01T10:40:51;2.80;95.20
9537;DHT22;4807;48.024;11.726;2023-03-01T10:44:08;2.50;96.10
9537;DHT22;4807;48.024;11.726;2023-03-01T10:47:44;3.00;96.80
9537;DHT22;4807;48.024;11.726;2023-03-01T10:51:06;2.60;96.50
9537;DHT22;4807;48.024;11.726;2023-03-01T10:54:18;3.00;96.30
9537;DHT22;4807;48.024;11.726;2023-03-01T10:57:34;3.20;96.00
9537;DHT22;4807;48.024;11.726;2023-03-01T11:00:51;3.50;95.50
9537;DHT22;4807;48.024;11.726;2023-03-01T11:04:10;3.50;94.50
9537;DHT22;4807;48.024;11.726;2023-03-01T11:07:20;3.10;94.70
9537;DHT22;4807;48.024;11.726;2023-03-01T11:10:32;2.90;95.30
9537;DHT22;4807;48.024;11.726;2023-03-01T11:13:54;3.20;95.60
9537;DHT22;4807;48.024;11.726;2023-03-01T11:17:17;4.60;95.50
9537;DHT22;4807;48.024;11.726;2023-03-01T11:20:33;3.10;94.10
9537;DHT22;4807;48.024;11.726;2023-03-01T11:23:46;4.40;93.70
9537;DHT22;4807;48.024;11.726;2023-03-01T11:26:55;4.00;93.00
9537;DHT22;4807;48.024;11.726;2023-03-01T11:30:07;3.70;93.90
9537;DHT22;4807;48.024;11.726;2023-03-01T11:33:34;3.50;94.80
9537;DHT22;4807;48.024;11.726;2023-03-01T11:36:51;3.80;94.40
9537;DHT22;4807;48.024;11.726;2023-03-01T11:40:10;3.90;94.90
9537;DHT22;4807;48.024;11.726;2023-03-01T11:43:36;3.70;96.00
9537;DHT22;4807;48.024;11.726;2023-03-01T11:47:07;3.40;95.60
9537;DHT22;4807;48.024;11.726;2023-03-01T11:50:35;3.20;95.30
9537;DHT22;4807;48.024;11.726;2023-03-01T11:54:01;3.00;95.50
9537;DHT22;4807;48.024;11.726;2023-03-01T11:57:35;3.00;96.00
9537;DHT22;4807;48.024;11.726;2023-03-01T12:01:10;2.90;96.90
9537;DHT22;4807;48.024;11.726;2023-03-01T12:04:47;3.00;96.00
9537;DHT22;4807;48.024;11.726;2023-03-01T12:08:15;3.10;96.60
9537;DHT22;4807;48.024;11.726;2023-03-01T12:11:41;3.20;96.00
9537;DHT22;4807;48.024;11.726;2023-03-01T12:15:34;3.40;96.00
9537;DHT22;4807;48.024;11.726;2023-03-01T12:19:02;3.60;95.90
9537;DHT22;4807;48.024;11.726;2023-03-01T12:22:29;3.50;95.90
9537;DHT22;4807;48.024;11.726;2023-03-01T12:25:42;3.50;95.80
9537;DHT22;4807;48.024;11.726;2023-03-01T12:29:07;3.70;95.80
9537;DHT22;4807;48.024;11.726;2023-03-01T12:32:42;3.70;95.50
9537;DHT22;4807;48.024;11.726;2023-03-01T12:40:20;4.10;95.70
9537;DHT22;4807;48.024;11.726;2023-03-01T12:43:52;4.30;94.80
9537;DHT22;4807;48.024;11.726;2023-03-01T12:47:19;4.20;94.90
9537;DHT22;4807;48.024;11.726;2023-03-01T12:50:41;4.20;95.30
9537;DHT22;4807;48.024;11.726;2023-03-01T12:53:55;4.10;94.90
9537;DHT22;4807;48.024;11.726;2023-03-01T12:57:12;4.00;95.30
9537;DHT22;4807;48.024;11.726;2023-03-01T13:00:32;3.90;95.20
9537;DHT22;4807;48.024;11.726;2023-03-01T13:04:06;3.90;95.30
9537;DHT22;4807;48.024;11.726;2023-03-01T13:07:29;3.90;95.60
9537;DHT22;4807;48.024;11.726;2023-03-01T13:10:47;4.00;95.70
9537;DHT22;4807;48.024;11.726;2023-03-01T13:17:55;4.10;95.40
9537;DHT22;4807;48.024;11.726;2023-03-01T13:21:05;4.10;95.30
9537;DHT22;4807;48.024;11.726;2023-03-01T13:24:24;4.00;95.40
9537;DHT22;4807;48.024;11.726;2023-03-01T13:27:36;4.00;95.70
9537;DHT22;4807;48.024;11.726;2023-03-01T13:30:44;4.10;95.70
9537;DHT22;4807;48.024;11.726;2023-03-01T13:33:54;4.10;95.70
9537;DHT22;4807;48.024;11.726;2023-03-01T13:37:09;4.10;95.90
9537;DHT22;4807;48.024;11.726;2023-03-01T13:40:57;4.20;95.60
9537;DHT22;4807;48.024;11.726;2023-03-01T13:44:12;4.20;96.00
9537;DHT22;4807;48.024;11.726;2023-03-01T13:47:29;4.20;95.80
9537;DHT22;4807;48.024;11.726;2023-03-01T13:50:48;4.30;96.00
9537;DHT22;4807;48.024;11.726;2023-03-01T13:53:59;4.30;95.80
9537;DHT22;4807;48.024;11.726;2023-03-01T13:57:21;4.30;95.80
9537;DHT22;4807;48.024;11.726;2023-03-01T14:00:37;4.40;95.80
9537;DHT22;4807;48.024;11.726;2023-03-01T14:03:47;4.60;96.00
9537;DHT22;4807;48.024;11.726;2023-03-01T14:07:11;4.50;95.90
9537;DHT22;4807;48.024;11.726;2023-03-01T14:10:21;4.50;95.60
9537;DHT22;4807;48.024;11.726;2023-03-01T14:13:41;4.40;95.70
9537;DHT22;4807;48.024;11.726;2023-03-01T14:20:46;4.40;96.30
9537;DHT22;4807;48.024;11.726;2023-03-01T14:24:00;4.40;96.10
9537;DHT22;4807;48.024;11.726;2023-03-01T14:27:11;4.30;96.10
9537;DHT22;4807;48.024;11.726;2023-03-01T14:30:22;4.30;96.50
9537;DHT22;4807;48.024;11.726;2023-03-01T14:33:35;4.40;96.50
9537;DHT22;4807;48.024;11.726;2023-03-01T14:36:46;4.40;96.70
9537;DHT22;4807;48.024;11.726;2023-03-01T14:39:57;4.30;96.60
9537;DHT22;4807;48.024;11.726;2023-03-01T14:43:10;4.40;96.80
9537;DHT22;4807;48.024;11.726;2023-03-01T14:46:30;4.40;96.70
9537;DHT22;4807;48.024;11.726;2023-03-01T14:49:42;4.40;96.60
9537;DHT22;4807;48.024;11.726;2023-03-01T14:52:53;4.50;96.90
9537;DHT22;4807;48.024;11.726;2023-03-01T14:56:05;4.50;97.00
9537;DHT22;4807;48.024;11.726;2023-03-01T14:59:22;4.50;96.90
9537;DHT22;4807;48.024;11.726;2023-03-01T15:02:31;4.50;97.00
9537;DHT22;4807;48.024;11.726;2023-03-01T15:05:43;4.50;96.80
9537;DHT22;4807;48.024;11.726;2023-03-01T15:08:53;4.50;96.90
9537;DHT22;4807;48.024;11.726;2023-03-01T15:15:50;4.40;97.30
9537;DHT22;4807;48.024;11.726;2023-03-01T15:19:03;4.40;97.30
9537;DHT22;4807;48.024;11.726;2023-03-01T15:22:15;4.40;97.70
9537;DHT22;4807;48.024;11.726;2023-03-01T15:25:26;4.30;97.60
9537;DHT22;4807;48.024;11.726;2023-03-01T15:28:42;4.20;98.00
9537;DHT22;4807;48.024;11.726;2023-03-01T15:31:59;4.20;98.40
9537;DHT22;4807;48.024;11.726;2023-03-01T15:35:33;4.00;98.70
9537;DHT22;4807;48.024;11.726;2023-03-01T15:38:52;3.90;99.00
9537;DHT22;4807;48.024;11.726;2023-03-01T15:42:04;3.80;99.20
9537;DHT22;4807;48.024;11.726;2023-03-01T15:45:23;3.70;99.80
9537;DHT22;4807;48.024;11.726;2023-03-01T15:48:33;3.70;99.90
9537;DHT22;4807;48.024;11.726;2023-03-01T15:51:42;3.60;99.80
9537;DHT22;4807;48.024;11.726;2023-03-01T15:54:50;3.50;99.70
9537;DHT22;4807;48.024;11.726;2023-03-01T15:58:00;3.50;99.70
9537;DHT22;4807;48.024;11.726;2023-03-01T16:01:14;3.40;99.90
9537;DHT22;4807;48.024;11.726;2023-03-01T16:04:24;3.30;99.90
9537;DHT22;4807;48.024;11.726;2023-03-01T16:07:33;3.20;99.90
9537;DHT22;4807;48.024;11.726;2023-03-01T16:10:46;3.00;99.90
9537;DHT22;4807;48.024;11.726;2023-03-01T16:13:56;3.00;99.90
9537;DHT22;4807;48.024;11.726;2023-03-01T16:17:06;2.80;99.90
9537;DHT22;4807;48.024;11.726;2023-03-01T16:20:17;2.70;99.90
9537;DHT22;4807;48.024;11.726;2023-03-01T16:23:34;2.60;99.90
9537;DHT22;4807;48.024;11.726;2023-03-01T16:26:42;2.50;99.90
9537;DHT22;4807;48.024;11.726;2023-03-01T16:29:50;2.30;99.90
9537;DHT22;4807;48.024;11.726;2023-03-01T16:33:00;2.10;99.90
9537;DHT22;4807;48.024;11.726;2023-03-01T16:36:17;2.00;99.90
9537;DHT22;4807;48.024;11.726;2023-03-01T16:39:27;1.80;99.90
9537;DHT22;4807;48.024;11.726;2023-03-01T16:42:35;1.70;99.90
9537;DHT22;4807;48.024;11.726;2023-03-01T16:45:46;1.90;99.90
9537;DHT22;4807;48.024;11.726;2023-03-01T16:48:56;1.60;99.90
9537;DHT22;4807;48.024;11.726;2023-03-01T16:52:04;1.40;99.90
9537;DHT22;4807;48.024;11.726;2023-03-01T16:55:13;1.30;99.90
9537;DHT22;4807;48.024;11.726;2023-03-01T16:58:21;1.20;99.90
9537;DHT22;4807;48.024;11.726;2023-03-01T17:01:31;1.10;99.90
9537;DHT22;4807;48.024;11.726;2023-03-01T17:04:52;1.00;99.90
9537;DHT22;4807;48.024;11.726;2023-03-01T17:08:00;0.90;99.90
9537;DHT22;4807;48.024;11.726;2023-03-01T17:11:11;0.80;99.90
9537;DHT22;4807;48.024;11.726;2023-03-01T17:14:20;0.70;99.90
9537;DHT22;4807;48.024;11.726;2023-03-01T17:17:29;0.60;99.90
9537;DHT22;4807;48.024;11.726;2023-03-01T17:20:38;0.50;99.90
9537;DHT22;4807;48.024;11.726;2023-03-01T17:23:46;0.40;99.90
9537;DHT22;4807;48.024;11.726;2023-03-01T17:26:56;0.30;99.90
9537;DHT22;4807;48.024;11.726;2023-03-01T17:30:05;0.20;99.90
9537;DHT22;4807;48.024;11.726;2023-03-01T17:33:16;0.20;99.90
9537;DHT22;4807;48.024;11.726;2023-03-01T17:36:26;0.10;99.90
9537;DHT22;4807;48.024;11.726;2023-03-01T17:39:35;0.10;99.90
9537;DHT22;4807;48.024;11.726;2023-03-01T17:42:43;0.10;99.90
9537;DHT22;4807;48.024;11.726;2023-03-01T17:45:52;0.00;99.90
9537;DHT22;4807;48.024;11.726;2023-03-01T17:49:00;0.10;99.90
9537;DHT22;4807;48.024;11.726;2023-03-01T17:52:10;0.00;99.90
9537;DHT22;4807;48.024;11.726;2023-03-01T17:55:22;-0.10;99.90
9537;DHT22;4807;48.024;11.726;2023-03-01T17:58:30;-0.10;99.90
9537;DHT22;4807;48.024;11.726;2023-03-01T18:01:40;-0.10;99.90
9537;DHT22;4807;48.024;11.726;2023-03-01T18:04:49;-0.10;99.90
9537;DHT22;4807;48.024;11.726;2023-03-01T18:07:59;-0.10;99.90
9537;DHT22;4807;48.024;11.726;2023-03-01T18:11:08;0.00;99.90
9537;DHT22;4807;48.024;11.726;2023-03-01T18:14:16;0.00;99.90
9537;DHT22;4807;48.024;11.726;2023-03-01T18:17:25;0.20;99.90
9537;DHT22;4807;48.024;11.726;2023-03-01T18:20:34;0.10;99.90
9537;DHT22;4807;48.024;11.726;2023-03-01T18:23:45;0.00;99.90
9537;DHT22;4807;48.024;11.726;2023-03-01T18:26:53;0.10;99.90
9537;DHT22;4807;48.024;11.726;2023-03-01T18:30:06;0.00;99.90
9537;DHT22;4807;48.024;11.726;2023-03-01T18:33:15;-0.30;99.90
9537;DHT22;4807;48.024;11.726;2023-03-01T18:36:25;-0.40;99.90
9537;DHT22;4807;48.024;11.726;2023-03-01T18:39:36;-0.30;99.90
9537;DHT22;4807;48.024;11.726;2023-03-01T18:42:45;-0.30;99.90
9537;DHT22;4807;48.024;11.726;2023-03-01T18:45:55;-0.50;99.90
9537;DHT22;4807;48.024;11.726;2023-03-01T18:49:05;-0.60;99.90
9537;DHT22;4807;48.024;11.726;2023-03-01T18:52:14;-0.30;99.90
9537;DHT22;4807;48.024;11.726;2023-03-01T18:55:23;-0.80;99.90
9537;DHT22;4807;48.024;11.726;2023-03-01T18:58:32;-0.80;99.90
9537;DHT22;4807;48.024;11.726;2023-03-01T19:01:42;-0.90;99.90
9537;DHT22;4807;48.024;11.726;2023-03-01T19:04:50;-0.90;99.90
9537;DHT22;4807;48.024;11.726;2023-03-01T19:07:58;-0.80;99.90
9537;DHT22;4807;48.024;11.726;2023-03-01T19:11:09;-0.80;99.90
9537;DHT22;4807;48.024;11.726;2023-03-01T19:14:19;-0.80;99.90
9537;DHT22;4807;48.024;11.726;2023-03-01T19:17:27;-0.80;99.90
9537;DHT22;4807;48.024;11.726;2023-03-01T19:20:37;-0.90;99.90
9537;DHT22;4807;48.024;11.726;2023-03-01T19:23:47;-1.00;99.90
9537;DHT22;4807;48.024;11.726;2023-03-01T19:26:57;-1.00;99.90
9537;DHT22;4807;48.024;11.726;2023-03-01T19:30:06;-1.00;99.90
9537;DHT22;4807;48.024;11.726;2023-03-01T19:33:15;-1.10;99.90
9537;DHT22;4807;48.024;11.726;2023-03-01T19:36:24;-1.20;99.90
9537;DHT22;4807;48.024;11.726;2023-03-01T19:39:40;-1.20;99.90
9537;DHT22;4807;48.024;11.726;2023-03-01T19:42:50;-0.90;99.90
9537;DHT22;4807;48.024;11.726;2023-03-01T19:45:58;-0.80;99.90
9537;DHT22;4807;48.024;11.726;2023-03-01T19:49:07;-1.00;99.90
9537;DHT22;4807;48.024;11.726;2023-03-01T19:52:15;-1.20;99.90
9537;DHT22;4807;48.024;11.726;2023-03-01T19:55:24;-1.10;99.90
9537;DHT22;4807;48.024;11.726;2023-03-01T19:58:34;-1.20;99.90
9537;DHT22;4807;48.024;11.726;2023-03-01T20:01:42;-1.20;99.90
9537;DHT22;4807;48.024;11.726;2023-03-01T20:04:51;-1.20;99.90
9537;DHT22;4807;48.024;11.726;2023-03-01T20:07:59;-1.30;99.90
9537;DHT22;4807;48.024;11.726;2023-03-01T20:11:09;-1.20;99.90
9537;DHT22;4807;48.024;11.726;2023-03-01T20:14:21;-1.30;99.90
9537;DHT22;4807;48.024;11.726;2023-03-01T20:17:30;-1.30;99.90
9537;DHT22;4807;48.024;11.726;2023-03-01T20:20:38;-1.30;99.90
9537;DHT22;4807;48.024;11.726;2023-03-01T20:23:47;-1.30;99.90
9537;DHT22;4807;48.024;11.726;2023-03-01T20:26:55;-1.30;99.90
9537;DHT22;4807;48.024;11.726;2023-03-01T20:30:06;-1.40;99.90
9537;DHT22;4807;48.024;11.726;2023-03-01T20:33:16;-1.30;99.90
9537;DHT22;4807;48.024;11.726;2023-03-01T20:36:25;-1.40;99.90
9537;DHT22;4807;48.024;11.726;2023-03-01T20:39:34;-1.40;99.90
9537;DHT22;4807;48.024;11.726;2023-03-01T20:42:43;-1.50;99.90
9537;DHT22;4807;48.024;11.726;2023-03-01T20:45:52;-1.50;99.90
9537;DHT22;4807;48.024;11.726;2023-03-01T20:49:01;-1.60;99.90
9537;DHT22;4807;48.024;11.726;2023-03-01T20:52:10;-1.60;99.90
9537;DHT22;4807;48.024;11.726;2023-03-01T20:55:19;-1.60;99.90
9537;DHT22;4807;48.024;11.726;2023-03-01T20:58:28;-1.60;99.90
9537;DHT22;4807;48.024;11.726;2023-03-01T21:01:39;-1.60;99.90
9537;DHT22;4807;48.024;11.726;2023-03-01T21:04:48;-1.60;99.90